createdAt,value
2022-08-03T00:00:30.850Z,0.00
2022-08-03T00:01:07.321Z,0.00
2022-08-03T00:01:40.225Z,0.00
2022-08-03T00:02:06.508Z,0.00
2022-08-03T00:02:34.625Z,0.00
2022-08-03T00:02:55.311Z,0.00
2022-08-03T00:03:26.604Z,0.00
2022-08-03T00:04:00.006Z,0.00
2022-08-03T00:04:39.728Z,0.00
2022-08-03T00:05:07.426Z,0.00
2022-08-03T00:05:35.264Z,0.00
2022-08-03T00:06:20.116Z,0.00
2022-08-03T00:06:55.106Z,0.00
2022-08-03T00:07:27.629Z,0.00
2022-08-03T00:07:58.526Z,0.00
2022-08-03T00:08:30.529Z,0.00
2022-08-03T00:09:02.381Z,0.00
2022-08-03T00:09:35.739Z,0.00
2022-08-03T00:10:07.814Z,0.00
2022-08-03T00:10:36.444Z,0.00
2022-08-03T00:11:09.961Z,0.00
2022-08-03T00:11:27.149Z,0.00
2022-08-03T00:12:00.527Z,0.00
2022-08-03T00:12:31.335Z,0.00
2022-08-03T00:13:02.477Z,0.00
2022-08-03T00:13:35.251Z,0.00
2022-08-03T00:14:13.449Z,0.00
2022-08-03T00:14:39.144Z,0.00
2022-08-03T00:15:16.450Z,0.00
2022-08-03T00:15:50.953Z,0.00
2022-08-03T00:16:15.049Z,0.00
2022-08-03T00:16:36.361Z,0.00
2022-08-03T00:17:02.424Z,0.00
2022-08-03T00:17:53.696Z,0.00
2022-08-03T00:18:06.518Z,0.00
2022-08-03T00:18:36.107Z,0.00
2022-08-03T00:18:56.301Z,0.00
2022-08-03T00:19:28.397Z,0.00
2022-08-03T00:19:59.620Z,0.00
2022-08-03T00:20:34.586Z,0.00
2022-08-03T00:21:20.421Z,0.00
2022-08-03T00:21:51.827Z,0.00
2022-08-03T00:22:26.046Z,0.00
2022-08-03T00:22:54.451Z,0.00
2022-08-03T00:23:31.725Z,0.00
2022-08-03T00:23:59.216Z,0.00
2022-08-03T00:24:30.431Z,0.00
2022-08-03T00:25:03.053Z,0.00
2022-08-03T00:25:35.170Z,0.00
2022-08-03T00:26:06.403Z,0.00
2022-08-03T00:26:36.292Z,0.00
2022-08-03T00:27:00.359Z,0.00
2022-08-03T00:27:45.982Z,0.00
2022-08-03T00:28:14.449Z,0.00
2022-08-03T00:28:43.063Z,0.00
2022-08-03T00:29:03.167Z,0.00
2022-08-03T00:29:59.351Z,0.00
2022-08-03T00:30:07.826Z,0.00
2022-08-03T00:30:34.384Z,0.00
2022-08-03T00:30:54.563Z,0.00
2022-08-03T00:31:39.874Z,0.00
2022-08-03T00:32:01.253Z,0.00
2022-08-03T00:32:34.280Z,0.00
2022-08-03T00:33:02.418Z,0.00
2022-08-03T00:33:58.745Z,0.00
2022-08-03T00:34:09.774Z,0.00
2022-08-03T00:34:57.681Z,0.00
2022-08-03T00:35:14.757Z,0.00
2022-08-03T00:35:50.157Z,0.00
2022-08-03T00:36:05.655Z,0.00
2022-08-03T00:36:30.435Z,0.00
2022-08-03T00:37:02.410Z,0.00
2022-08-03T00:37:41.593Z,0.00
2022-08-03T00:38:06.503Z,0.00
2022-08-03T00:38:39.471Z,0.00
2022-08-03T00:39:13.775Z,0.00
2022-08-03T00:39:35.833Z,0.00
2022-08-03T00:40:00.080Z,0.00
2022-08-03T00:40:30.641Z,0.00
2022-08-03T00:41:20.913Z,0.00
2022-08-03T00:41:50.386Z,0.00
2022-08-03T00:42:23.347Z,0.00
2022-08-03T00:42:58.641Z,0.00
2022-08-03T00:43:26.493Z,0.00
2022-08-03T00:43:59.789Z,0.00
2022-08-03T00:44:32.165Z,0.00
2022-08-03T00:45:07.368Z,0.00
2022-08-03T00:45:44.264Z,0.00
2022-08-03T00:46:07.659Z,0.00
2022-08-03T00:46:34.535Z,0.00
2022-08-03T00:46:54.403Z,0.00
2022-08-03T00:47:29.152Z,0.00
2022-08-03T00:48:00.114Z,0.00
2022-08-03T00:48:35.308Z,0.00
2022-08-03T00:49:18.531Z,0.00
2022-08-03T00:49:54.536Z,0.00
2022-08-03T00:50:23.126Z,0.00
2022-08-03T00:50:57.087Z,0.00
2022-08-03T00:51:29.608Z,0.00
2022-08-03T00:51:59.111Z,0.00
2022-08-03T00:52:30.433Z,0.00
2022-08-03T00:53:04.156Z,0.00
2022-08-03T00:53:36.335Z,0.00
2022-08-03T00:54:15.975Z,0.00
2022-08-03T00:54:35.532Z,0.00
2022-08-03T00:54:54.376Z,0.00
2022-08-03T00:55:29.552Z,0.00
2022-08-03T00:55:59.081Z,0.00
2022-08-03T00:56:31.643Z,0.00
2022-08-03T00:57:18.085Z,0.00
2022-08-03T00:57:54.995Z,0.00
2022-08-03T00:58:22.450Z,0.00
2022-08-03T00:58:57.893Z,0.00
2022-08-03T00:59:27.229Z,0.00
2022-08-03T01:00:03.882Z,0.00
2022-08-03T01:00:30.444Z,0.00
2022-08-03T01:01:02.641Z,0.00
2022-08-03T01:01:36.439Z,0.00
2022-08-03T01:02:07.880Z,0.00
2022-08-03T01:02:40.469Z,0.00
2022-08-03T01:03:11.514Z,0.00
2022-08-03T01:03:36.719Z,0.00
2022-08-03T01:03:59.570Z,0.00
2022-08-03T01:04:31.877Z,0.00
2022-08-03T01:05:04.406Z,0.00
2022-08-03T01:05:34.880Z,0.00
2022-08-03T01:06:08.204Z,0.00
2022-08-03T01:06:34.517Z,0.00
2022-08-03T01:07:02.084Z,0.00
2022-08-03T01:07:36.976Z,0.00
2022-08-03T01:07:58.482Z,0.00
2022-08-03T01:08:30.819Z,0.00
2022-08-03T01:09:03.489Z,0.00
2022-08-03T01:09:34.377Z,0.00
2022-08-03T01:10:07.425Z,0.00
2022-08-03T01:10:35.991Z,0.00
2022-08-03T01:10:55.864Z,0.00
2022-08-03T01:11:26.412Z,0.00
2022-08-03T01:12:01.193Z,0.00
2022-08-03T01:12:31.931Z,0.00
2022-08-03T01:13:03.182Z,0.00
2022-08-03T01:14:04.460Z,0.00
2022-08-03T01:14:23.275Z,0.00
2022-08-03T01:14:54.467Z,0.00
2022-08-03T01:15:28.714Z,0.00
2022-08-03T01:15:58.359Z,0.00
2022-08-03T01:16:35.945Z,0.00
2022-08-03T01:17:04.560Z,0.00
2022-08-03T01:17:36.343Z,0.00
2022-08-03T01:18:06.505Z,0.00
2022-08-03T01:18:36.287Z,0.00
2022-08-03T01:18:54.393Z,0.00
2022-08-03T01:19:26.357Z,0.00
2022-08-03T01:19:59.281Z,0.00
2022-08-03T01:20:30.568Z,0.00
2022-08-03T01:21:04.191Z,0.00
2022-08-03T01:21:34.538Z,0.00
2022-08-03T01:22:08.968Z,0.00
2022-08-03T01:22:35.325Z,0.00
2022-08-03T01:22:54.332Z,0.00
2022-08-03T01:23:29.041Z,0.00
2022-08-03T01:23:58.375Z,0.00
2022-08-03T01:24:32.352Z,0.00
2022-08-03T01:25:02.598Z,0.00
2022-08-03T01:25:35.574Z,0.00
2022-08-03T01:26:07.062Z,0.00
2022-08-03T01:26:34.361Z,0.00
2022-08-03T01:26:54.468Z,0.00
2022-08-03T01:27:28.888Z,0.00
2022-08-03T01:27:59.506Z,0.00
2022-08-03T01:28:31.387Z,0.00
2022-08-03T01:29:02.417Z,0.00
2022-08-03T01:29:37.197Z,0.00
2022-08-03T01:30:06.645Z,0.00
2022-08-03T01:30:35.172Z,0.00
2022-08-03T01:30:55.240Z,0.00
2022-08-03T01:31:26.378Z,0.00
2022-08-03T01:32:58.153Z,0.00
2022-08-03T01:33:18.372Z,0.00
2022-08-03T01:33:50.423Z,0.00
2022-08-03T01:34:22.461Z,0.00
2022-08-03T01:34:54.360Z,0.00
2022-08-03T01:35:26.508Z,0.00
2022-08-03T01:35:58.365Z,0.00
2022-08-03T01:36:30.432Z,0.00
2022-08-03T01:37:02.395Z,0.00
2022-08-03T01:37:34.349Z,0.00
2022-08-03T01:38:06.368Z,0.00
2022-08-03T01:38:34.399Z,0.00
2022-08-03T01:38:54.445Z,0.00
2022-08-03T01:39:27.024Z,0.00
2022-08-03T01:39:59.049Z,0.00
2022-08-03T01:40:31.401Z,0.00
2022-08-03T01:41:03.138Z,0.00
2022-08-03T01:41:35.191Z,0.00
2022-08-03T01:42:06.385Z,0.00
2022-08-03T01:42:34.364Z,0.00
2022-08-03T01:42:55.006Z,0.00
2022-08-03T01:43:55.494Z,0.00
2022-08-03T01:44:31.322Z,0.00
2022-08-03T01:45:03.258Z,0.00
2022-08-03T01:45:34.558Z,0.00
2022-08-03T01:46:07.183Z,0.00
2022-08-03T01:46:34.463Z,0.00
2022-08-03T01:46:55.207Z,0.00
2022-08-03T01:47:26.408Z,0.00
2022-08-03T01:47:58.438Z,0.00
2022-08-03T01:48:30.358Z,0.00
2022-08-03T01:49:09.127Z,0.00
2022-08-03T01:49:34.466Z,0.00
2022-08-03T01:50:06.585Z,0.00
2022-08-03T01:50:35.439Z,0.00
2022-08-03T01:50:54.477Z,0.00
2022-08-03T01:52:03.042Z,0.00
2022-08-03T01:52:14.484Z,0.00
2022-08-03T01:52:38.440Z,0.00
2022-08-03T01:53:04.248Z,0.00
2022-08-03T01:53:35.966Z,0.00
2022-08-03T01:54:06.355Z,0.00
2022-08-03T01:54:34.465Z,0.00
2022-08-03T01:54:55.023Z,0.00
2022-08-03T01:55:27.494Z,0.00
2022-08-03T01:55:59.165Z,0.00
2022-08-03T01:56:30.433Z,0.00
2022-08-03T01:57:03.555Z,0.00
2022-08-03T01:57:34.431Z,0.00
2022-08-03T01:58:23.117Z,0.00
2022-08-03T01:58:54.413Z,0.00
2022-08-03T01:59:27.042Z,0.00
2022-08-03T01:59:58.339Z,0.00
2022-08-03T02:00:31.398Z,0.00
2022-08-03T02:01:02.463Z,0.00
2022-08-03T02:02:27.741Z,0.00
2022-08-03T02:02:39.854Z,0.00
2022-08-03T02:03:10.309Z,0.00
2022-08-03T02:03:34.366Z,0.00
2022-08-03T02:04:00.903Z,0.00
2022-08-03T02:04:30.470Z,0.00
2022-08-03T02:05:03.210Z,0.00
2022-08-03T02:05:34.336Z,0.00
2022-08-03T02:07:02.305Z,0.00
2022-08-03T02:07:11.146Z,0.00
2022-08-03T02:07:36.181Z,0.00
2022-08-03T02:07:58.403Z,0.00
2022-08-03T02:08:32.054Z,0.00
2022-08-03T02:09:03.147Z,0.00
2022-08-03T02:09:35.160Z,0.00
2022-08-03T02:10:06.510Z,0.00
2022-08-03T02:10:35.825Z,0.00
2022-08-03T02:10:55.940Z,0.00
2022-08-03T02:11:27.283Z,0.00
2022-08-03T02:11:59.995Z,0.00
2022-08-03T02:12:31.259Z,0.00
2022-08-03T02:13:22.213Z,0.00
2022-08-03T02:13:51.222Z,0.00
2022-08-03T02:14:22.387Z,0.00
2022-08-03T02:14:55.186Z,0.00
2022-08-03T02:15:26.587Z,0.00
2022-08-03T02:16:00.596Z,0.00
2022-08-03T02:16:30.432Z,0.00
2022-08-03T02:17:03.715Z,0.00
2022-08-03T02:17:38.599Z,0.00
2022-08-03T02:18:07.006Z,0.00
2022-08-03T02:18:36.757Z,0.00
2022-08-03T02:18:54.297Z,0.00
2022-08-03T02:19:26.356Z,0.00
2022-08-03T02:19:58.384Z,0.00
2022-08-03T02:20:30.608Z,0.00
2022-08-03T02:21:02.314Z,0.00
2022-08-03T02:21:55.617Z,0.00
2022-08-03T02:22:07.262Z,0.00
2022-08-03T02:22:35.267Z,0.00
2022-08-03T02:22:54.464Z,0.00
2022-08-03T02:23:28.916Z,0.00
2022-08-03T02:23:59.329Z,0.00
2022-08-03T02:24:35.061Z,0.00
2022-08-03T02:25:03.343Z,0.00
2022-08-03T02:25:35.585Z,0.00
2022-08-03T02:26:06.382Z,0.00
2022-08-03T02:26:34.362Z,0.00
2022-08-03T02:26:55.123Z,0.00
2022-08-03T02:27:26.398Z,0.00
2022-08-03T02:27:58.951Z,0.00
2022-08-03T02:28:31.504Z,0.00
2022-08-03T02:29:03.121Z,0.00
2022-08-03T02:29:39.159Z,0.00
2022-08-03T02:30:07.572Z,0.00
2022-08-03T02:30:34.455Z,0.00
2022-08-03T02:30:54.490Z,0.00
2022-08-03T02:31:27.821Z,0.00
2022-08-03T02:31:59.161Z,0.00
2022-08-03T02:32:31.132Z,0.00
2022-08-03T02:33:02.313Z,0.00
2022-08-03T02:33:35.442Z,0.00
2022-08-03T02:34:06.714Z,0.00
2022-08-03T02:34:34.486Z,0.00
2022-08-03T02:34:54.962Z,0.00
2022-08-03T02:35:26.425Z,0.00
2022-08-03T02:35:59.378Z,0.00
2022-08-03T02:36:31.408Z,0.00
2022-08-03T02:37:02.355Z,0.00
2022-08-03T02:37:35.792Z,0.00
2022-08-03T02:38:07.290Z,0.00
2022-08-03T02:38:36.351Z,0.00
2022-08-03T02:38:55.375Z,0.00
2022-08-03T02:39:27.285Z,0.00
2022-08-03T02:40:01.970Z,0.00
2022-08-03T02:40:30.416Z,0.00
2022-08-03T02:41:08.227Z,0.00
2022-08-03T02:41:34.321Z,0.00
2022-08-03T02:42:06.327Z,0.00
2022-08-03T02:42:35.389Z,0.00
2022-08-03T02:42:55.298Z,0.00
2022-08-03T02:43:29.884Z,0.00
2022-08-03T02:44:14.320Z,0.00
2022-08-03T02:44:36.541Z,0.00
2022-08-03T02:45:04.172Z,0.00
2022-08-03T02:45:35.021Z,0.00
2022-08-03T02:46:07.953Z,0.00
2022-08-03T02:46:34.461Z,0.00
2022-08-03T02:46:54.361Z,0.00
2022-08-03T02:47:26.353Z,0.00
2022-08-03T02:47:58.370Z,0.00
2022-08-03T02:48:31.349Z,0.00
2022-08-03T02:49:35.341Z,0.00
2022-08-03T02:50:06.551Z,0.00
2022-08-03T02:50:34.490Z,0.00
2022-08-03T02:50:55.794Z,0.00
2022-08-03T02:51:27.157Z,0.00
2022-08-03T02:51:58.293Z,0.00
2022-08-03T02:52:30.374Z,0.00
2022-08-03T02:53:02.406Z,0.00
2022-08-03T02:53:34.973Z,0.00
2022-08-03T02:54:06.289Z,0.00
2022-08-03T02:54:35.097Z,0.00
2022-08-03T02:54:56.693Z,0.00
2022-08-03T02:55:27.476Z,0.00
2022-08-03T02:55:58.316Z,0.00
2022-08-03T02:56:30.312Z,0.00
2022-08-03T02:57:04.455Z,0.00
2022-08-03T02:57:38.134Z,0.00
2022-08-03T02:58:07.300Z,0.00
2022-08-03T02:58:34.471Z,0.00
2022-08-03T02:58:54.361Z,0.00
2022-08-03T02:59:26.366Z,0.00
2022-08-03T02:59:58.427Z,0.00
2022-08-03T03:00:31.308Z,0.00
2022-08-03T03:01:02.362Z,0.00
2022-08-03T03:01:34.316Z,0.00
2022-08-03T03:02:07.127Z,0.00
2022-08-03T03:02:35.477Z,0.00
2022-08-03T03:02:54.294Z,0.00
2022-08-03T03:03:27.631Z,0.00
2022-08-03T03:04:00.286Z,0.00
2022-08-03T03:04:33.049Z,0.00
2022-08-03T03:05:53.495Z,0.00
2022-08-03T03:06:06.324Z,0.00
2022-08-03T03:06:34.596Z,0.00
2022-08-03T03:06:54.399Z,0.00
2022-08-03T03:07:26.309Z,0.00
2022-08-03T03:07:59.343Z,0.00
2022-08-03T03:08:30.328Z,0.00
2022-08-03T03:09:02.933Z,0.00
2022-08-03T03:09:41.577Z,0.00
2022-08-03T03:10:07.339Z,0.00
2022-08-03T03:10:36.493Z,0.00
2022-08-03T03:11:10.711Z,0.00
2022-08-03T03:11:35.501Z,0.00
2022-08-03T03:11:58.326Z,0.00
2022-08-03T03:12:30.354Z,0.00
2022-08-03T03:13:03.334Z,0.00
2022-08-03T03:13:34.397Z,0.00
2022-08-03T03:14:06.387Z,0.00
2022-08-03T03:14:36.280Z,0.00
2022-08-03T03:14:55.118Z,0.00
2022-08-03T03:15:27.993Z,0.00
2022-08-03T03:15:58.437Z,0.00
2022-08-03T03:16:30.926Z,0.00
2022-08-03T03:17:02.297Z,0.00
2022-08-03T03:17:36.596Z,0.00
2022-08-03T03:18:06.413Z,0.00
2022-08-03T03:18:34.482Z,0.00
2022-08-03T03:18:54.343Z,0.00
2022-08-03T03:19:29.345Z,0.00
2022-08-03T03:19:58.778Z,0.00
2022-08-03T03:20:30.725Z,0.00
2022-08-03T03:21:04.164Z,0.00
2022-08-03T03:21:35.152Z,0.00
2022-08-03T03:22:09.635Z,0.00
2022-08-03T03:22:35.791Z,0.00
2022-08-03T03:22:55.076Z,0.00
2022-08-03T03:23:27.297Z,0.00
2022-08-03T03:24:01.250Z,0.00
2022-08-03T03:24:31.341Z,0.00
2022-08-03T03:25:02.535Z,0.00
2022-08-03T03:25:38.266Z,0.00
2022-08-03T03:26:11.172Z,0.00
2022-08-03T03:26:34.390Z,0.00
2022-08-03T03:26:56.937Z,0.00
2022-08-03T03:27:26.357Z,0.00
2022-08-03T03:28:10.923Z,0.00
2022-08-03T03:28:31.062Z,0.00
2022-08-03T03:29:02.320Z,0.00
2022-08-03T03:29:36.516Z,0.00
2022-08-03T03:30:07.065Z,0.00
2022-08-03T03:30:34.548Z,0.00
2022-08-03T03:30:54.393Z,0.00
2022-08-03T03:31:26.900Z,0.00
2022-08-03T03:31:58.433Z,0.00
2022-08-03T03:32:31.790Z,0.00
2022-08-03T03:33:02.305Z,0.00
2022-08-03T03:33:35.095Z,0.00
2022-08-03T03:34:06.391Z,0.00
2022-08-03T03:34:34.386Z,0.00
2022-08-03T03:34:54.437Z,0.00
2022-08-03T03:35:27.182Z,0.00
2022-08-03T03:35:58.919Z,0.00
2022-08-03T03:36:30.388Z,0.00
2022-08-03T03:37:02.852Z,0.00
2022-08-03T03:37:34.332Z,0.00
2022-08-03T03:38:07.343Z,0.00
2022-08-03T03:38:34.425Z,0.00
2022-08-03T03:38:55.865Z,0.00
2022-08-03T03:39:26.314Z,0.00
2022-08-03T03:39:59.055Z,0.00
2022-08-03T03:40:31.278Z,0.00
2022-08-03T03:41:03.370Z,0.00
2022-08-03T03:41:35.255Z,0.00
2022-08-03T03:42:06.259Z,0.00
2022-08-03T03:42:35.447Z,0.00
2022-08-03T03:42:54.315Z,0.00
2022-08-03T03:43:26.827Z,0.00
2022-08-03T03:43:59.294Z,0.00
2022-08-03T03:44:31.096Z,0.00
2022-08-03T03:45:02.512Z,0.00
2022-08-03T03:45:36.075Z,0.00
2022-08-03T03:46:06.906Z,0.00
2022-08-03T03:46:34.481Z,0.00
2022-08-03T03:46:55.249Z,0.00
2022-08-03T03:47:32.434Z,0.00
2022-08-03T03:47:59.068Z,0.00
2022-08-03T03:48:30.295Z,0.00
2022-08-03T03:49:02.921Z,0.00
2022-08-03T03:49:34.444Z,0.00
2022-08-03T03:50:06.997Z,0.00
2022-08-03T03:50:36.569Z,0.00
2022-08-03T03:51:11.444Z,0.00
2022-08-03T03:51:35.463Z,0.00
2022-08-03T03:51:59.087Z,0.00
2022-08-03T03:52:31.242Z,0.00
2022-08-03T03:53:03.340Z,0.00
2022-08-03T03:53:34.293Z,0.00
2022-08-03T03:54:06.346Z,0.00
2022-08-03T03:54:35.315Z,0.00
2022-08-03T03:54:57.549Z,0.00
2022-08-03T03:55:27.046Z,0.00
2022-08-03T03:56:02.423Z,0.00
2022-08-03T03:56:30.749Z,0.36
2022-08-03T03:57:02.293Z,0.00
2022-08-03T03:57:36.091Z,0.00
2022-08-03T03:58:07.559Z,0.36
2022-08-03T03:58:34.879Z,0.00
2022-08-03T03:58:55.316Z,0.36
2022-08-03T03:59:26.287Z,0.00
2022-08-03T03:59:59.675Z,0.36
2022-08-03T04:00:30.981Z,0.85
2022-08-03T04:01:03.011Z,0.85
2022-08-03T04:01:34.338Z,0.85
2022-08-03T04:02:06.788Z,0.36
2022-08-03T04:02:35.274Z,1.22
2022-08-03T04:02:54.326Z,1.22
2022-08-03T04:03:26.275Z,0.36
2022-08-03T04:03:58.302Z,1.22
2022-08-03T04:04:31.412Z,0.85
2022-08-03T04:05:02.566Z,1.22
2022-08-03T04:05:34.354Z,1.22
2022-08-03T04:06:06.335Z,1.22
2022-08-03T04:06:35.442Z,2.08
2022-08-03T04:06:54.426Z,1.22
2022-08-03T04:07:27.362Z,1.71
2022-08-03T04:07:58.322Z,2.57
2022-08-03T04:08:30.943Z,2.08
2022-08-03T04:09:02.413Z,2.94
2022-08-03T04:09:36.582Z,2.08
2022-08-03T04:10:14.586Z,2.94
2022-08-03T04:10:35.240Z,3.43
2022-08-03T04:10:55.400Z,3.43
2022-08-03T04:11:29.117Z,3.79
2022-08-03T04:11:58.897Z,3.43
2022-08-03T04:12:31.191Z,3.43
2022-08-03T04:13:04.867Z,3.79
2022-08-03T04:13:35.529Z,4.28
2022-08-03T04:14:23.243Z,4.28
2022-08-03T04:14:54.412Z,4.28
2022-08-03T04:15:27.100Z,5.14
2022-08-03T04:15:58.664Z,4.28
2022-08-03T04:16:31.990Z,5.63
2022-08-03T04:17:02.455Z,4.77
2022-08-03T04:17:34.941Z,5.63
2022-08-03T04:18:06.367Z,5.63
2022-08-03T04:18:36.071Z,5.99
2022-08-03T04:18:56.303Z,6.48
2022-08-03T04:19:26.388Z,6.48
2022-08-03T04:19:59.014Z,5.99
2022-08-03T04:20:30.436Z,6.48
2022-08-03T04:21:02.294Z,6.48
2022-08-03T04:21:34.476Z,7.34
2022-08-03T04:22:06.465Z,8.19
2022-08-03T04:22:34.524Z,7.34
2022-08-03T04:22:54.984Z,7.70
2022-08-03T04:23:27.377Z,7.70
2022-08-03T04:23:58.812Z,7.70
2022-08-03T04:24:32.447Z,8.56
2022-08-03T04:25:04.254Z,8.19
2022-08-03T04:25:35.967Z,8.56
2022-08-03T04:26:08.331Z,9.05
2022-08-03T04:26:35.845Z,9.54
2022-08-03T04:26:54.336Z,9.54
2022-08-03T04:27:26.370Z,9.54
2022-08-03T04:28:07.643Z,10.39
2022-08-03T04:28:34.452Z,10.39
2022-08-03T04:29:02.360Z,9.54
2022-08-03T04:29:34.385Z,9.91
2022-08-03T04:30:07.530Z,9.91
2022-08-03T04:30:36.970Z,11.25
2022-08-03T04:30:54.445Z,10.77
2022-08-03T04:31:26.851Z,11.25
2022-08-03T04:31:58.464Z,11.25
2022-08-03T04:32:31.856Z,11.62
2022-08-03T04:33:02.337Z,11.25
2022-08-03T04:33:35.265Z,11.25
2022-08-03T04:34:07.331Z,11.62
2022-08-03T04:34:35.214Z,11.62
2022-08-03T04:35:10.506Z,11.62
2022-08-03T04:36:01.032Z,11.62
2022-08-03T04:36:15.342Z,12.11
2022-08-03T04:36:35.474Z,12.11
2022-08-03T04:37:03.249Z,12.97
2022-08-03T04:37:35.986Z,12.48
2022-08-03T04:38:07.902Z,13.33
2022-08-03T04:38:34.471Z,13.33
2022-08-03T04:38:55.362Z,14.31
2022-08-03T04:39:27.226Z,13.33
2022-08-03T04:39:58.418Z,14.31
2022-08-03T04:40:30.541Z,13.82
2022-08-03T04:41:03.226Z,13.82
2022-08-03T04:41:34.357Z,14.31
2022-08-03T04:42:22.907Z,15.17
2022-08-03T04:42:55.913Z,15.17
2022-08-03T04:43:26.893Z,14.68
2022-08-03T04:43:58.333Z,15.53
2022-08-03T04:44:31.016Z,15.17
2022-08-03T04:45:04.495Z,14.68
2022-08-03T04:45:35.129Z,16.02
2022-08-03T04:46:07.339Z,15.17
2022-08-03T04:46:35.245Z,15.17
2022-08-03T04:47:10.366Z,15.53
2022-08-03T04:47:35.350Z,16.88
2022-08-03T04:47:59.234Z,16.39
2022-08-03T04:48:31.532Z,16.39
2022-08-03T04:49:02.522Z,16.88
2022-08-03T04:49:34.460Z,17.25
2022-08-03T04:50:11.867Z,18.11
2022-08-03T04:50:34.504Z,18.60
2022-08-03T04:50:55.301Z,18.60
2022-08-03T04:51:26.397Z,19.45
2022-08-03T04:51:59.204Z,19.45
2022-08-03T04:52:31.147Z,19.94
2022-08-03T04:53:10.151Z,20.31
2022-08-03T04:53:34.491Z,20.31
2022-08-03T04:54:06.309Z,21.16
2022-08-03T04:54:35.721Z,21.16
2022-08-03T04:54:54.304Z,22.02
2022-08-03T04:55:27.750Z,22.51
2022-08-03T04:55:59.101Z,22.02
2022-08-03T04:56:30.865Z,22.51
2022-08-03T04:57:03.484Z,22.87
2022-08-03T04:57:35.916Z,23.85
2022-08-03T04:58:06.990Z,23.85
2022-08-03T04:58:34.537Z,24.22
2022-08-03T04:58:54.740Z,24.71
2022-08-03T04:59:26.371Z,24.71
2022-08-03T05:00:16.116Z,25.07
2022-08-03T05:00:36.051Z,25.07
2022-08-03T05:01:03.212Z,25.94
2022-08-03T05:01:34.422Z,26.42
2022-08-03T05:02:06.501Z,27.28
2022-08-03T05:02:34.548Z,26.42
2022-08-03T05:02:54.495Z,26.79
2022-08-03T05:03:27.133Z,27.28
2022-08-03T05:03:58.385Z,27.65
2022-08-03T05:04:30.426Z,28.63
2022-08-03T05:05:04.933Z,28.63
2022-08-03T05:05:49.491Z,28.63
2022-08-03T05:06:11.620Z,28.99
2022-08-03T05:06:35.975Z,29.48
2022-08-03T05:06:54.873Z,29.48
2022-08-03T05:07:35.508Z,28.63
2022-08-03T05:07:59.221Z,28.99
2022-08-03T05:08:31.118Z,29.85
2022-08-03T05:09:02.415Z,30.70
2022-08-03T05:09:49.899Z,30.70
2022-08-03T05:10:16.069Z,31.19
2022-08-03T05:10:34.456Z,31.19
2022-08-03T05:10:55.144Z,31.19
2022-08-03T05:11:26.331Z,31.56
2022-08-03T05:11:59.033Z,30.34
2022-08-03T05:12:32.759Z,31.19
2022-08-03T05:13:02.972Z,30.70
2022-08-03T05:13:34.318Z,31.56
2022-08-03T05:14:06.292Z,30.70
2022-08-03T05:14:34.520Z,31.56
2022-08-03T05:14:54.330Z,31.56
2022-08-03T05:15:28.302Z,31.56
2022-08-03T05:15:58.277Z,32.05
2022-08-03T05:16:30.350Z,31.56
2022-08-03T05:17:03.760Z,31.56
2022-08-03T05:17:34.383Z,33.39
2022-08-03T05:18:09.539Z,32.05
2022-08-03T05:18:35.182Z,32.42
2022-08-03T05:18:55.285Z,32.42
2022-08-03T05:19:26.358Z,32.05
2022-08-03T05:19:59.017Z,32.42
2022-08-03T05:20:30.470Z,32.42
2022-08-03T05:21:06.884Z,32.05
2022-08-03T05:21:50.379Z,32.42
2022-08-03T05:22:06.443Z,32.05
2022-08-03T05:22:36.157Z,32.90
2022-08-03T05:22:54.296Z,32.05
2022-08-03T05:23:26.300Z,32.05
2022-08-03T05:23:58.420Z,32.05
2022-08-03T05:24:30.278Z,32.42
2022-08-03T05:25:02.577Z,32.42
2022-08-03T05:25:34.375Z,32.05
2022-08-03T05:26:07.185Z,32.42
2022-08-03T05:26:34.603Z,32.42
2022-08-03T05:26:54.304Z,32.05
2022-08-03T05:27:27.620Z,32.90
2022-08-03T05:27:58.331Z,32.90
2022-08-03T05:28:31.913Z,32.05
2022-08-03T05:29:03.351Z,32.42
2022-08-03T05:29:35.434Z,32.42
2022-08-03T05:30:31.500Z,32.05
2022-08-03T05:30:36.727Z,32.05
2022-08-03T05:30:54.321Z,32.42
2022-08-03T05:31:26.391Z,31.56
2022-08-03T05:31:58.906Z,32.42
2022-08-03T05:32:30.312Z,33.39
2022-08-03T05:33:03.085Z,33.76
2022-08-03T05:33:35.352Z,33.76
2022-08-03T05:34:06.454Z,33.76
2022-08-03T05:34:35.452Z,34.25
2022-08-03T05:34:55.107Z,34.25
2022-08-03T05:36:01.257Z,35.11
2022-08-03T05:36:14.343Z,34.62
2022-08-03T05:36:34.459Z,34.62
2022-08-03T05:37:02.331Z,35.11
2022-08-03T05:37:36.606Z,35.48
2022-08-03T05:38:06.385Z,35.11
2022-08-03T05:38:36.240Z,35.48
2022-08-03T05:38:58.475Z,35.48
2022-08-03T05:39:26.247Z,35.97
2022-08-03T05:39:59.055Z,35.97
2022-08-03T05:40:30.500Z,35.97
2022-08-03T05:41:22.724Z,36.33
2022-08-03T05:41:36.892Z,36.82
2022-08-03T05:42:07.291Z,37.19
2022-08-03T05:42:34.471Z,36.82
2022-08-03T05:42:54.357Z,36.33
2022-08-03T05:43:26.924Z,36.82
2022-08-03T05:43:59.295Z,37.68
2022-08-03T05:44:31.345Z,37.19
2022-08-03T05:45:02.509Z,37.68
2022-08-03T05:45:34.323Z,38.53
2022-08-03T05:46:12.539Z,38.53
2022-08-03T05:46:34.559Z,39.02
2022-08-03T05:46:55.581Z,39.02
2022-08-03T05:47:26.271Z,39.02
2022-08-03T05:47:59.043Z,38.17
2022-08-03T05:48:31.147Z,39.02
2022-08-03T05:49:04.952Z,39.02
2022-08-03T05:49:34.636Z,39.39
2022-08-03T05:50:07.365Z,39.39
2022-08-03T05:50:34.473Z,39.39
2022-08-03T05:50:55.588Z,38.53
2022-08-03T05:51:27.223Z,38.17
2022-08-03T05:52:00.251Z,39.88
2022-08-03T05:52:31.947Z,39.88
2022-08-03T05:53:03.383Z,39.02
2022-08-03T05:53:34.266Z,39.02
2022-08-03T05:54:06.850Z,39.39
2022-08-03T05:54:56.847Z,39.02
2022-08-03T05:55:10.541Z,39.39
2022-08-03T05:55:34.489Z,39.02
2022-08-03T05:56:03.513Z,38.53
2022-08-03T05:56:31.849Z,39.39
2022-08-03T05:57:02.308Z,38.53
2022-08-03T05:57:35.003Z,39.88
2022-08-03T05:58:06.270Z,39.02
2022-08-03T05:58:36.073Z,39.02
2022-08-03T05:58:54.285Z,38.53
2022-08-03T05:59:38.245Z,40.73
2022-08-03T05:59:59.003Z,42.45
2022-08-03T06:00:30.437Z,48.56
2022-08-03T06:01:02.479Z,58.11
2022-08-03T06:01:36.319Z,68.87
2022-08-03T06:02:06.504Z,79.76
2022-08-03T06:02:35.399Z,85.88
2022-08-03T06:02:55.049Z,95.79
2022-08-03T06:03:26.368Z,105.33
2022-08-03T06:03:58.935Z,111.44
2022-08-03T06:04:30.276Z,113.65
2022-08-03T06:05:02.488Z,113.65
2022-08-03T06:05:34.409Z,114.51
2022-08-03T06:06:06.340Z,116.22
2022-08-03T06:06:35.499Z,117.44
2022-08-03T06:06:54.344Z,119.64
2022-08-03T06:07:29.136Z,123.19
2022-08-03T06:07:58.465Z,126.61
2022-08-03T06:08:31.042Z,129.68
2022-08-03T06:09:02.349Z,131.88
2022-08-03T06:10:34.410Z,132.73
2022-08-03T06:10:39.255Z,134.81
2022-08-03T06:11:11.400Z,134.44
2022-08-03T06:11:34.640Z,134.44
2022-08-03T06:12:00.595Z,134.44
2022-08-03T06:12:30.388Z,133.59
2022-08-03T06:13:03.009Z,134.81
2022-08-03T06:13:35.282Z,136.16
2022-08-03T06:14:06.408Z,139.58
2022-08-03T06:14:36.103Z,140.44
2022-08-03T06:14:54.421Z,143.13
2022-08-03T06:15:27.343Z,143.99
2022-08-03T06:15:58.304Z,144.36
2022-08-03T06:16:30.498Z,146.56
2022-08-03T06:17:02.668Z,147.41
2022-08-03T06:17:37.631Z,149.98
2022-08-03T06:18:06.343Z,151.82
2022-08-03T06:18:34.545Z,153.53
2022-08-03T06:18:54.981Z,157.44
2022-08-03T06:19:26.286Z,159.53
2022-08-03T06:19:58.345Z,160.02
2022-08-03T06:20:32.248Z,162.22
2022-08-03T06:21:14.477Z,163.93
2022-08-03T06:21:34.966Z,166.50
2022-08-03T06:22:06.327Z,168.70
2022-08-03T06:22:34.827Z,169.56
2022-08-03T06:23:01.015Z,170.05
2022-08-03T06:23:52.766Z,170.90
2022-08-03T06:23:58.330Z,172.12
2022-08-03T06:24:32.039Z,173.84
2022-08-03T06:25:03.471Z,176.04
2022-08-03T06:25:35.037Z,177.75
2022-08-03T06:26:06.372Z,181.30
2022-08-03T06:26:34.807Z,182.15
2022-08-03T06:27:11.478Z,183.02
2022-08-03T06:27:37.332Z,185.22
2022-08-03T06:27:59.347Z,185.58
2022-08-03T06:28:52.289Z,184.73
2022-08-03T06:29:03.914Z,186.44
2022-08-03T06:29:34.470Z,186.07
2022-08-03T06:30:06.579Z,186.44
2022-08-03T06:30:36.758Z,187.78
2022-08-03T06:30:54.350Z,72.79
2022-08-03T06:31:32.294Z,70.22
2022-08-03T06:31:58.314Z,68.02
2022-08-03T06:32:31.008Z,67.16
2022-08-03T06:33:03.354Z,183.02
2022-08-03T06:34:34.505Z,68.02
2022-08-03T06:34:38.274Z,58.48
2022-08-03T06:35:10.470Z,193.90
2022-08-03T06:35:34.544Z,193.41
2022-08-03T06:35:59.233Z,195.61
2022-08-03T06:36:30.291Z,196.47
2022-08-03T06:37:04.889Z,186.07
2022-08-03T06:37:35.704Z,161.36
2022-08-03T06:38:06.413Z,171.76
2022-08-03T06:38:35.355Z,181.67
2022-08-03T06:38:55.250Z,205.15
2022-08-03T06:39:26.354Z,212.13
2022-08-03T06:39:58.994Z,216.90
2022-08-03T06:40:30.438Z,221.67
2022-08-03T06:41:03.129Z,222.53
2022-08-03T06:41:37.470Z,207.36
2022-08-03T06:42:07.781Z,60.19
2022-08-03T06:42:34.547Z,60.19
2022-08-03T06:42:54.213Z,59.82
2022-08-03T06:43:26.347Z,61.17